createdAt,value
2022-08-19T00:01:40.755Z,24.51
2022-08-19T00:04:10.551Z,24.49
2022-08-19T00:06:40.170Z,24.48
2022-08-19T00:09:09.982Z,24.47
2022-08-19T00:11:40.402Z,24.45
2022-08-19T00:14:10.596Z,24.44
2022-08-19T00:16:39.906Z,24.40
2022-08-19T00:19:07.898Z,24.38
2022-08-19T00:21:39.401Z,24.36
2022-08-19T00:24:09.001Z,24.29
2022-08-19T00:26:37.304Z,24.28
2022-08-19T00:29:08.393Z,24.25
2022-08-19T00:31:36.878Z,24.23
2022-08-19T00:34:05.124Z,24.24
2022-08-19T00:36:33.535Z,24.24
2022-08-19T00:39:01.911Z,24.25
2022-08-19T00:41:30.763Z,24.26
2022-08-19T00:44:01.736Z,24.31
2022-08-19T00:46:31.662Z,24.34
2022-08-19T00:48:59.770Z,24.35
2022-08-19T00:51:29.530Z,24.36
2022-08-19T00:53:59.520Z,24.38
2022-08-19T00:56:28.566Z,24.36
2022-08-19T00:58:58.588Z,24.39
2022-08-19T01:01:26.995Z,24.41
2022-08-19T01:03:58.058Z,24.39
2022-08-19T01:06:27.359Z,24.41
2022-08-19T01:08:56.332Z,24.44
2022-08-19T01:11:24.459Z,24.44
2022-08-19T01:13:54.137Z,24.43
2022-08-19T01:16:26.157Z,24.43
2022-08-19T01:18:54.040Z,24.42
2022-08-19T01:21:28.678Z,24.44
2022-08-19T01:23:57.914Z,24.42
2022-08-19T01:26:27.605Z,24.42
2022-08-19T01:28:59.688Z,24.39
2022-08-19T01:31:32.479Z,24.37
2022-08-19T01:34:02.741Z,24.29
2022-08-19T01:36:33.099Z,24.26
2022-08-19T01:39:05.100Z,24.24
2022-08-19T01:41:32.910Z,24.19
2022-08-19T01:44:10.057Z,24.14
2022-08-19T01:46:46.197Z,24.09
2022-08-19T01:49:14.177Z,24.01
2022-08-19T01:51:41.950Z,24.04
2022-08-19T01:54:12.346Z,23.99
2022-08-19T01:56:41.554Z,23.97
2022-08-19T01:59:13.967Z,23.95
2022-08-19T02:01:42.422Z,23.91
2022-08-19T02:04:10.629Z,23.90
2022-08-19T02:06:39.279Z,23.90
2022-08-19T02:09:08.910Z,23.90
2022-08-19T02:11:39.140Z,23.90
2022-08-19T02:14:09.347Z,23.88
2022-08-19T02:16:39.327Z,23.86
2022-08-19T02:19:07.306Z,23.83
2022-08-19T02:21:35.302Z,23.80
2022-08-19T02:24:03.445Z,23.78
2022-08-19T02:26:31.404Z,23.76
2022-08-19T02:29:01.223Z,23.75
2022-08-19T02:31:30.151Z,23.72
2022-08-19T02:33:58.683Z,23.68
2022-08-19T02:36:28.517Z,23.65
2022-08-19T02:38:55.985Z,23.62
2022-08-19T02:41:27.185Z,23.60
2022-08-19T02:44:29.967Z,23.57
2022-08-19T02:46:47.193Z,23.56
2022-08-19T02:49:17.663Z,23.52
2022-08-19T02:51:47.370Z,23.44
2022-08-19T02:54:16.586Z,23.44
2022-08-19T02:56:46.102Z,23.44
2022-08-19T02:59:13.911Z,23.41
2022-08-19T03:01:44.630Z,23.37
2022-08-19T03:04:14.458Z,23.34
2022-08-19T03:06:44.059Z,23.31
2022-08-19T03:09:12.528Z,23.30
2022-08-19T03:11:40.933Z,23.30
2022-08-19T03:14:11.305Z,23.27
2022-08-19T03:16:45.728Z,23.25
2022-08-19T03:19:13.755Z,23.21
2022-08-19T03:21:41.781Z,23.20
2022-08-19T03:24:11.101Z,23.19
2022-08-19T03:26:41.683Z,23.19
2022-08-19T03:29:12.005Z,23.13
2022-08-19T03:31:52.558Z,23.13
2022-08-19T03:34:27.026Z,23.11
2022-08-19T03:36:56.272Z,23.05
2022-08-19T03:39:25.275Z,22.98
2022-08-19T03:42:33.167Z,22.93
2022-08-19T03:44:46.635Z,22.90
2022-08-19T03:47:17.269Z,22.88
2022-08-19T03:49:47.311Z,22.87
2022-08-19T03:52:15.324Z,22.84
2022-08-19T03:54:43.566Z,22.80
2022-08-19T03:57:11.375Z,22.76
2022-08-19T03:59:39.754Z,22.73
2022-08-19T04:02:10.894Z,22.66
2022-08-19T04:04:39.517Z,22.65
2022-08-19T04:07:09.596Z,22.63
2022-08-19T04:09:37.908Z,22.60
2022-08-19T04:12:07.574Z,22.60
2022-08-19T04:14:36.721Z,22.57
2022-08-19T04:17:06.713Z,22.57
2022-08-19T04:19:36.202Z,22.54
2022-08-19T04:22:05.540Z,22.51
2022-08-19T04:24:35.722Z,22.52
2022-08-19T04:27:03.807Z,22.48
2022-08-19T04:29:31.980Z,22.47
2022-08-19T04:32:09.344Z,22.44
2022-08-19T04:35:01.550Z,22.41
2022-08-19T04:37:29.532Z,22.34
2022-08-19T04:40:24.093Z,22.35
2022-08-19T04:42:52.094Z,22.31
2022-08-19T04:45:20.043Z,22.26
2022-08-19T04:47:58.292Z,22.22
2022-08-19T04:50:27.555Z,22.20
2022-08-19T04:52:57.422Z,22.16
2022-08-19T04:55:27.488Z,22.14
2022-08-19T04:57:55.496Z,22.10
2022-08-19T05:00:23.874Z,22.03
2022-08-19T05:02:51.770Z,22.02
2022-08-19T05:05:20.780Z,21.99
2022-08-19T05:07:48.950Z,21.97
2022-08-19T05:10:16.812Z,21.96
2022-08-19T05:12:46.209Z,21.96
2022-08-19T05:15:14.198Z,21.94
2022-08-19T05:18:03.439Z,21.94
2022-08-19T05:20:48.653Z,21.97
2022-08-19T05:23:21.970Z,22.00
2022-08-19T05:25:51.343Z,22.02
2022-08-19T05:28:21.517Z,22.06
2022-08-19T05:30:51.694Z,22.08
2022-08-19T05:33:19.555Z,22.08
2022-08-19T05:35:49.549Z,22.10
2022-08-19T05:38:18.249Z,22.09
2022-08-19T05:40:47.607Z,22.13
2022-08-19T05:43:16.814Z,22.14
2022-08-19T05:45:46.529Z,22.13
2022-08-19T05:48:15.056Z,22.11
2022-08-19T05:50:46.443Z,22.13
2022-08-19T05:53:17.344Z,22.11
2022-08-19T05:55:45.247Z,22.10
2022-08-19T05:58:13.357Z,22.13
2022-08-19T06:00:41.957Z,22.14
2022-08-19T06:03:12.728Z,22.16
2022-08-19T06:05:51.811Z,22.19
2022-08-19T06:08:33.920Z,22.23
2022-08-19T06:11:22.831Z,22.31
2022-08-19T06:13:59.718Z,22.33
2022-08-19T06:16:36.771Z,22.38
2022-08-19T06:19:11.819Z,22.41
2022-08-19T06:21:45.444Z,22.44
2022-08-19T06:24:18.117Z,22.49
2022-08-19T06:26:59.217Z,22.54
2022-08-19T06:29:34.764Z,22.59
2022-08-19T06:32:09.008Z,22.60
2022-08-19T06:34:43.955Z,22.63
2022-08-19T06:37:14.407Z,22.66
2022-08-19T06:39:44.789Z,22.68
2022-08-19T06:42:17.848Z,22.72
2022-08-19T06:44:49.091Z,22.74
2022-08-19T06:47:25.162Z,22.79
2022-08-19T06:50:03.421Z,22.83
2022-08-19T06:52:34.385Z,22.84
2022-08-19T06:55:06.314Z,22.88
2022-08-19T06:57:35.464Z,22.93
2022-08-19T07:00:03.779Z,22.95
2022-08-19T07:02:33.831Z,22.96
2022-08-19T07:05:08.441Z,23.04
2022-08-19T07:07:45.159Z,23.05
2022-08-19T07:10:23.763Z,23.09
2022-08-19T07:12:59.951Z,23.12
2022-08-19T07:15:35.969Z,23.17
2022-08-19T07:29:24.108Z,23.39
2022-08-19T07:31:57.202Z,23.43
2022-08-19T07:34:26.244Z,23.45
2022-08-19T07:36:54.969Z,23.46
2022-08-19T07:39:24.945Z,23.50
2022-08-19T07:41:53.436Z,23.53
2022-08-19T07:44:22.820Z,23.55
2022-08-19T07:46:53.369Z,23.56
2022-08-19T07:49:22.875Z,23.57
2022-08-19T07:51:53.260Z,23.59
2022-08-19T07:54:22.767Z,23.60
2022-08-19T07:56:52.516Z,23.59
2022-08-19T07:59:22.554Z,23.63
2022-08-19T08:01:51.166Z,23.64
2022-08-19T08:04:36.920Z,23.67
2022-08-19T08:07:22.363Z,23.71
2022-08-19T08:09:51.778Z,23.74
2022-08-19T08:12:34.187Z,23.78
2022-08-19T08:15:12.547Z,23.82
2022-08-19T08:17:49.176Z,23.84
2022-08-19T08:20:20.373Z,23.89
2022-08-19T08:23:06.688Z,23.92
2022-08-19T08:25:36.367Z,23.96
2022-08-19T08:28:05.408Z,24.02
2022-08-19T08:30:36.826Z,24.06
2022-08-19T08:33:05.491Z,24.09
2022-08-19T08:35:34.433Z,24.12
2022-08-19T08:38:03.578Z,24.14
2022-08-19T08:40:37.193Z,24.17
2022-08-19T08:43:12.948Z,24.21
2022-08-19T08:45:53.768Z,24.21
2022-08-19T08:48:26.254Z,24.26
2022-08-19T08:50:56.892Z,24.25
2022-08-19T08:53:29.168Z,24.25
2022-08-19T08:55:57.803Z,24.24
2022-08-19T08:58:31.883Z,24.26
2022-08-19T09:01:01.056Z,24.28
2022-08-19T09:03:31.611Z,24.31
2022-08-19T09:06:03.692Z,24.34
2022-08-19T09:08:47.476Z,24.36
2022-08-19T09:11:42.675Z,24.39
2022-08-19T09:14:40.661Z,24.40
2022-08-19T09:17:08.848Z,24.41
2022-08-19T09:19:37.618Z,24.42
2022-08-19T09:22:06.230Z,24.43
2022-08-19T09:24:34.194Z,24.44
2022-08-19T09:27:07.952Z,24.44
2022-08-19T09:29:47.026Z,24.46
2022-08-19T09:32:26.421Z,24.49
2022-08-19T09:34:55.882Z,24.51
2022-08-19T09:37:24.134Z,24.53
2022-08-19T09:39:53.724Z,24.57
2022-08-19T09:42:30.328Z,24.57
2022-08-19T09:44:59.629Z,24.60
2022-08-19T09:47:29.737Z,24.62
2022-08-19T09:49:59.685Z,24.65
2022-08-19T09:52:32.615Z,24.68
2022-08-19T09:55:01.682Z,24.71
2022-08-19T09:57:35.354Z,24.74
2022-08-19T10:00:03.837Z,24.75
2022-08-19T10:02:33.149Z,24.79
2022-08-19T10:05:26.601Z,24.83
2022-08-19T10:07:56.867Z,24.88
2022-08-19T10:10:25.367Z,24.90
2022-08-19T10:12:56.117Z,24.94
2022-08-19T10:15:28.975Z,24.98
2022-08-19T10:18:00.502Z,25.03
2022-08-19T10:20:31.468Z,25.08
2022-08-19T10:23:03.150Z,25.13
2022-08-19T10:25:36.721Z,25.18
2022-08-19T10:28:10.578Z,25.24
2022-08-19T10:30:39.022Z,25.23
2022-08-19T10:33:11.328Z,25.28
2022-08-19T10:35:42.565Z,25.31
2022-08-19T10:38:31.394Z,25.38
2022-08-19T10:40:59.979Z,25.38
2022-08-19T10:43:27.860Z,25.41
2022-08-19T10:45:58.298Z,25.41
2022-08-19T10:48:31.628Z,25.44
2022-08-19T10:51:22.757Z,25.44
2022-08-19T10:53:51.704Z,25.44
2022-08-19T10:56:38.398Z,25.45
2022-08-19T10:59:06.958Z,25.44
2022-08-19T11:01:36.253Z,25.43
2022-08-19T11:04:10.121Z,25.44
2022-08-19T11:06:39.382Z,25.42
2022-08-19T11:09:07.688Z,25.42
2022-08-19T11:11:41.737Z,25.43
2022-08-19T11:14:10.396Z,25.45
2022-08-19T11:16:40.102Z,25.48
2022-08-19T11:19:10.934Z,25.52
2022-08-19T11:21:41.397Z,25.52
2022-08-19T11:24:11.841Z,25.48
2022-08-19T11:26:41.177Z,25.52
2022-08-19T11:29:13.669Z,25.53
2022-08-19T11:31:43.317Z,25.52
2022-08-19T11:34:15.750Z,25.55
2022-08-19T11:36:46.034Z,25.53
2022-08-19T11:39:16.281Z,25.53
2022-08-19T11:41:44.166Z,25.56
2022-08-19T11:44:14.961Z,25.52
2022-08-19T11:46:46.441Z,25.60
2022-08-19T11:49:16.425Z,25.64
2022-08-19T11:51:44.862Z,25.66
2022-08-19T11:54:14.422Z,25.70
2022-08-19T11:56:43.218Z,25.76
2022-08-19T11:59:14.807Z,25.79
2022-08-19T12:01:43.697Z,25.82
2022-08-19T12:04:13.184Z,25.84
2022-08-19T12:06:43.071Z,25.89
2022-08-19T12:09:12.303Z,25.91
2022-08-19T12:11:41.483Z,25.94
2022-08-19T12:14:14.467Z,26.01
2022-08-19T12:16:48.621Z,26.09
2022-08-19T12:19:22.297Z,26.16
2022-08-19T12:21:54.235Z,26.24
2022-08-19T12:24:24.323Z,26.32
2022-08-19T12:26:53.982Z,26.40
2022-08-19T12:29:23.848Z,26.46
2022-08-19T12:31:52.188Z,26.54
2022-08-19T12:34:21.001Z,26.60
2022-08-19T12:36:50.330Z,26.66
2022-08-19T12:39:19.765Z,26.71
2022-08-19T12:41:51.283Z,26.76
2022-08-19T12:44:29.413Z,26.79
2022-08-19T12:47:00.914Z,26.83
2022-08-19T12:49:53.434Z,26.87
2022-08-19T12:52:22.887Z,26.92
2022-08-19T12:54:54.498Z,26.97
2022-08-19T12:57:32.137Z,26.94
2022-08-19T13:00:09.536Z,27.03
2022-08-19T13:02:38.450Z,27.07
2022-08-19T13:05:09.279Z,27.07
2022-08-19T13:07:38.469Z,27.07
2022-08-19T13:10:09.264Z,27.15
2022-08-19T13:12:37.648Z,27.16
2022-08-19T13:15:10.864Z,27.20
2022-08-19T13:17:39.661Z,27.24
2022-08-19T13:20:09.991Z,27.29
2022-08-19T13:22:38.107Z,27.33
2022-08-19T13:25:11.989Z,27.40
2022-08-19T13:27:41.125Z,27.41
2022-08-19T13:30:29.707Z,27.43
2022-08-19T13:33:13.018Z,27.46
2022-08-19T13:35:47.559Z,27.49
2022-08-19T13:38:16.514Z,27.50
2022-08-19T13:40:46.069Z,27.52
2022-08-19T13:43:22.754Z,27.53
2022-08-19T13:45:53.590Z,27.56
2022-08-19T13:48:21.896Z,27.58
2022-08-19T13:50:50.143Z,27.61
2022-08-19T13:53:19.047Z,27.67
2022-08-19T13:55:48.568Z,27.70
2022-08-19T13:58:17.986Z,27.73
2022-08-19T14:00:50.889Z,27.77
2022-08-19T14:03:18.757Z,27.81
2022-08-19T14:05:46.975Z,27.81
2022-08-19T14:08:15.181Z,27.80
2022-08-19T14:10:45.109Z,27.81
2022-08-19T14:13:17.543Z,27.80
2022-08-19T14:15:46.196Z,27.78
2022-08-19T14:18:14.018Z,27.76
2022-08-19T14:20:42.767Z,27.72
2022-08-19T14:23:10.598Z,27.72
2022-08-19T14:25:38.651Z,27.68
2022-08-19T14:28:07.908Z,27.60
2022-08-19T14:30:39.164Z,27.61
2022-08-19T14:33:09.574Z,27.55
2022-08-19T14:35:37.696Z,27.54
2022-08-19T14:38:09.160Z,27.50
2022-08-19T14:40:38.446Z,27.46
2022-08-19T14:43:12.683Z,27.42
2022-08-19T14:45:48.587Z,27.36
2022-08-19T14:48:19.459Z,27.30
2022-08-19T14:50:49.134Z,27.20
2022-08-19T14:53:19.647Z,27.14
2022-08-19T14:55:50.991Z,27.06
2022-08-19T14:58:28.846Z,27.02
2022-08-19T15:01:01.148Z,26.99
2022-08-19T15:03:29.457Z,26.97
2022-08-19T15:05:58.905Z,26.96
2022-08-19T15:08:34.923Z,26.99
2022-08-19T15:11:06.773Z,27.03
2022-08-19T15:13:39.700Z,27.07
2022-08-19T15:16:18.172Z,27.09
2022-08-19T15:18:48.636Z,27.10
2022-08-19T15:21:26.510Z,27.09
2022-08-19T15:23:59.666Z,27.08
2022-08-19T15:26:34.101Z,27.06
2022-08-19T15:29:04.417Z,27.06
2022-08-19T15:31:38.249Z,27.04
2022-08-19T15:34:08.290Z,27.03
2022-08-19T15:36:37.077Z,27.03
2022-08-19T15:39:06.518Z,27.02
2022-08-19T15:41:36.970Z,27.03
2022-08-19T15:44:09.012Z,27.05
2022-08-19T15:46:40.233Z,27.04
2022-08-19T15:49:09.783Z,27.03
2022-08-19T15:51:40.772Z,27.04
2022-08-19T15:54:13.334Z,27.06
2022-08-19T15:57:07.693Z,27.07
2022-08-19T15:59:56.073Z,27.10
2022-08-19T16:02:47.816Z,27.11
2022-08-19T16:05:38.590Z,27.13
2022-08-19T16:08:10.791Z,27.12
2022-08-19T16:10:39.918Z,27.13
2022-08-19T16:13:08.460Z,27.16
2022-08-19T16:15:43.161Z,27.16
2022-08-19T16:18:12.849Z,27.19
2022-08-19T16:20:41.038Z,27.21
2022-08-19T16:23:12.167Z,27.21
2022-08-19T16:25:40.006Z,27.22
2022-08-19T16:28:10.276Z,27.22
2022-08-19T16:30:41.193Z,27.23
2022-08-19T16:33:10.215Z,27.22
2022-08-19T16:35:39.506Z,27.22
2022-08-19T16:38:08.638Z,27.21
2022-08-19T16:40:37.242Z,27.19
2022-08-19T16:43:05.265Z,27.18
2022-08-19T16:45:33.148Z,27.16
2022-08-19T16:48:00.998Z,27.14
2022-08-19T16:50:48.133Z,27.14
2022-08-19T16:53:21.466Z,27.14
2022-08-19T16:55:50.754Z,27.06
2022-08-19T16:58:19.342Z,27.06
2022-08-19T17:00:48.602Z,27.03
2022-08-19T17:03:17.437Z,27.01
2022-08-19T17:05:47.372Z,26.98
2022-08-19T17:08:16.861Z,26.97
2022-08-19T17:11:16.514Z,26.94
2022-08-19T17:13:38.374Z,26.91
2022-08-19T17:16:11.012Z,26.90
2022-08-19T17:18:42.411Z,26.87
2022-08-19T17:21:14.387Z,26.84
2022-08-19T17:23:44.926Z,26.82
2022-08-19T17:26:19.367Z,26.81
2022-08-19T17:28:50.039Z,26.77
2022-08-19T17:31:25.184Z,26.75
2022-08-19T17:33:54.980Z,26.71
2022-08-19T17:36:26.178Z,26.67
2022-08-19T17:38:56.137Z,26.60
2022-08-19T17:41:27.254Z,26.54
2022-08-19T17:43:55.307Z,26.48
2022-08-19T17:46:25.536Z,26.43
2022-08-19T17:48:58.569Z,26.38
2022-08-19T17:51:41.993Z,26.36
2022-08-19T17:54:12.296Z,26.30
2022-08-19T17:56:41.758Z,26.28
2022-08-19T17:59:14.103Z,26.27
2022-08-19T18:01:53.387Z,26.25
2022-08-19T18:04:24.001Z,26.24
2022-08-19T18:06:54.348Z,26.23
2022-08-19T18:09:25.030Z,26.16
2022-08-19T18:11:57.273Z,26.22
2022-08-19T18:14:32.805Z,26.20
2022-08-19T18:17:02.076Z,26.20
2022-08-19T18:19:41.400Z,26.19
2022-08-19T18:22:12.936Z,26.18
2022-08-19T18:24:41.603Z,26.18
2022-08-19T18:27:10.947Z,26.18
2022-08-19T18:29:40.425Z,26.17
2022-08-19T18:32:13.285Z,26.16
2022-08-19T18:34:42.059Z,26.15
2022-08-19T18:37:09.922Z,26.15
2022-08-19T18:39:55.168Z,26.14
2022-08-19T18:42:42.183Z,26.14
2022-08-19T18:45:29.274Z,26.10
2022-08-19T18:48:25.820Z,26.03
2022-08-19T18:50:56.895Z,26.01
2022-08-19T18:53:25.334Z,25.95
2022-08-19T18:55:55.398Z,25.92
2022-08-19T18:58:26.593Z,25.88
2022-08-19T19:00:56.818Z,25.82
2022-08-19T19:03:25.759Z,25.77
2022-08-19T19:05:54.846Z,25.73
2022-08-19T19:08:26.748Z,25.70
2022-08-19T19:10:55.977Z,25.67
2022-08-19T19:13:25.256Z,25.63
2022-08-19T19:15:54.432Z,25.58
2022-08-19T19:18:22.469Z,25.53
2022-08-19T19:20:50.231Z,25.50
2022-08-19T19:23:18.015Z,25.45
2022-08-19T19:25:50.899Z,25.43
2022-08-19T19:28:27.703Z,25.38
2022-08-19T19:30:59.076Z,25.38
2022-08-19T19:33:27.951Z,25.34
2022-08-19T19:35:56.234Z,25.33
2022-08-19T19:38:24.494Z,25.30
2022-08-19T19:40:52.417Z,25.29
2022-08-19T19:43:20.470Z,25.26
2022-08-19T19:45:49.883Z,25.25
2022-08-19T19:48:18.990Z,25.25
2022-08-19T19:50:48.867Z,25.21
2022-08-19T19:53:24.106Z,25.21
2022-08-19T19:55:54.933Z,25.15
2022-08-19T19:58:28.786Z,25.12
2022-08-19T20:00:57.067Z,25.08
2022-08-19T20:03:26.414Z,25.05
2022-08-19T20:05:54.908Z,24.99
2022-08-19T20:08:40.424Z,24.94
2022-08-19T20:11:08.854Z,24.93
2022-08-19T20:13:40.550Z,24.90
2022-08-19T20:16:08.738Z,24.88
2022-08-19T20:18:38.888Z,24.86
2022-08-19T20:21:07.178Z,24.85
2022-08-19T20:23:35.443Z,24.83
2022-08-19T20:26:06.467Z,24.82
2022-08-19T20:28:47.900Z,24.82
2022-08-19T20:31:26.361Z,24.79
2022-08-19T20:33:59.433Z,24.80
2022-08-19T20:36:27.524Z,24.80
2022-08-19T20:38:55.290Z,24.79
2022-08-19T20:41:23.819Z,24.79
2022-08-19T20:43:51.746Z,24.79
2022-08-19T20:46:19.905Z,24.77
2022-08-19T20:48:47.695Z,24.77
2022-08-19T20:51:17.182Z,24.75
2022-08-19T20:53:45.026Z,24.73
2022-08-19T20:56:13.051Z,24.72
2022-08-19T20:58:42.176Z,24.70
2022-08-19T21:01:10.926Z,24.71
2022-08-19T21:03:43.243Z,24.69
2022-08-19T21:06:12.697Z,24.71
2022-08-19T21:08:43.223Z,24.71
2022-08-19T21:11:13.775Z,24.71
2022-08-19T21:13:48.313Z,24.75
2022-08-19T21:16:16.520Z,24.75
2022-08-19T21:18:44.354Z,24.72
2022-08-19T21:21:12.103Z,24.69
2022-08-19T21:23:40.162Z,24.63
2022-08-19T21:26:09.618Z,24.62
2022-08-19T21:28:37.349Z,24.59
2022-08-19T21:31:07.332Z,24.54
2022-08-19T21:33:35.652Z,24.52
2022-08-19T21:36:04.672Z,24.49
2022-08-19T21:38:33.029Z,24.47
2022-08-19T21:41:04.180Z,24.45
2022-08-19T21:43:36.132Z,24.44
2022-08-19T21:46:04.461Z,24.40
2022-08-19T21:48:32.853Z,24.41
2022-08-19T21:51:00.928Z,24.42
2022-08-19T21:53:34.046Z,24.39
2022-08-19T21:56:03.083Z,24.39
2022-08-19T21:58:31.086Z,24.37
2022-08-19T22:01:01.520Z,24.37
2022-08-19T22:03:30.214Z,24.37
2022-08-19T22:05:58.603Z,24.37
2022-08-19T22:08:27.203Z,24.36
2022-08-19T22:10:55.992Z,24.32
2022-08-19T22:13:24.894Z,24.28
2022-08-19T22:15:55.034Z,24.27
2022-08-19T22:18:24.475Z,24.25
2022-08-19T22:20:52.274Z,24.21
2022-08-19T22:23:20.441Z,24.18
2022-08-19T22:25:48.516Z,24.15
2022-08-19T22:28:27.913Z,24.15
2022-08-19T22:30:56.588Z,24.13
2022-08-19T22:33:27.702Z,24.08
2022-08-19T22:35:55.722Z,24.09
2022-08-19T22:38:25.255Z,24.07
2022-08-19T22:40:56.456Z,24.04
2022-08-19T22:43:27.282Z,24.04
2022-08-19T22:45:57.188Z,23.99
2022-08-19T22:48:29.959Z,23.99
2022-08-19T22:51:15.813Z,23.96
2022-08-19T22:53:45.863Z,23.91
2022-08-19T22:56:15.594Z,23.90
2022-08-19T22:58:43.667Z,23.88
2022-08-19T23:01:13.016Z,23.86
2022-08-19T23:03:52.281Z,23.83
2022-08-19T23:06:20.338Z,23.80
2022-08-19T23:08:48.126Z,23.77
2022-08-19T23:11:16.290Z,23.71
2022-08-19T23:13:44.407Z,23.68
2022-08-19T23:16:12.165Z,23.64
2022-08-19T23:18:40.713Z,23.63
2022-08-19T23:21:09.863Z,23.60
2022-08-19T23:23:39.379Z,23.57
2022-08-19T23:26:11.714Z,23.57
2022-08-19T23:28:57.413Z,23.51
2022-08-19T23:31:27.056Z,23.47
2022-08-19T23:33:54.811Z,23.46
2022-08-19T23:36:25.054Z,23.37
2022-08-19T23:38:53.021Z,23.34
2022-08-19T23:41:23.859Z,23.30
2022-08-19T23:43:54.977Z,23.25
2022-08-19T23:46:28.408Z,23.21
2022-08-19T23:48:56.665Z,23.17
2022-08-19T23:51:26.741Z,23.16
2022-08-19T23:53:54.613Z,23.13
2022-08-19T23:56:22.509Z,23.10
2022-08-19T23:58:50.576Z,23.07
